sensor_id;sensor_type;location;lat;lon;timestamp;P1;durP1;ratioP1;P2;durP2;ratioP2
14282;SDS011;7225;59.282;18.344;2023-03-14T00:01:14;3.80;;;1.00;;
14282;SDS011;7225;59.282;18.344;2023-03-14T00:03:43;3.53;;;1.33;;
14282;SDS011;7225;59.282;18.344;2023-03-14T00:06:10;1.43;;;1.00;;
14282;SDS011;7225;59.282;18.344;2023-03-14T00:08:38;5.30;;;1.10;;
14282;SDS011;7225;59.282;18.344;2023-03-14T00:11:10;2.47;;;0.90;;
14282;SDS011;7225;59.282;18.344;2023-03-14T00:13:39;4.60;;;1.30;;
14282;SDS011;7225;59.282;18.344;2023-03-14T00:16:07;3.07;;;0.90;;
14282;SDS011;7225;59.282;18.344;2023-03-14T00:18:36;3.03;;;0.90;;
14282;SDS011;7225;59.282;18.344;2023-03-14T00:21:05;3.93;;;0.97;;
14282;SDS011;7225;59.282;18.344;2023-03-14T00:23:34;3.57;;;0.90;;
14282;SDS011;7225;59.282;18.344;2023-03-14T00:26:05;2.63;;;1.20;;
14282;SDS011;7225;59.282;18.344;2023-03-14T00:28:37;2.30;;;0.90;;
14282;SDS011;7225;59.282;18.344;2023-03-14T00:31:08;1.40;;;0.60;;
14282;SDS011;7225;59.282;18.344;2023-03-14T00:33:37;1.80;;;0.60;;
14282;SDS011;7225;59.282;18.344;2023-03-14T00:36:05;5.00;;;0.93;;
14282;SDS011;7225;59.282;18.344;2023-03-14T00:38:38;1.60;;;0.73;;
14282;SDS011;7225;59.282;18.344;2023-03-14T00:41:06;6.27;;;1.00;;
14282;SDS011;7225;59.282;18.344;2023-03-14T00:43:36;1.60;;;0.77;;
14282;SDS011;7225;59.282;18.344;2023-03-14T00:46:04;3.50;;;0.67;;
14282;SDS011;7225;59.282;18.344;2023-03-14T00:48:31;3.67;;;0.70;;
14282;SDS011;7225;59.282;18.344;2023-03-14T00:50:58;3.27;;;0.70;;
14282;SDS011;7225;59.282;18.344;2023-03-14T00:53:25;2.70;;;1.43;;
14282;SDS011;7225;59.282;18.344;2023-03-14T00:55:52;6.50;;;0.80;;
14282;SDS011;7225;59.282;18.344;2023-03-14T00:58:19;3.73;;;0.67;;
14282;SDS011;7225;59.282;18.344;2023-03-14T01:00:46;1.40;;;0.50;;
14282;SDS011;7225;59.282;18.344;2023-03-14T01:03:13;1.63;;;0.50;;
14282;SDS011;7225;59.282;18.344;2023-03-14T01:05:41;1.13;;;0.60;;
14282;SDS011;7225;59.282;18.344;2023-03-14T01:08:08;1.40;;;0.60;;
14282;SDS011;7225;59.282;18.344;2023-03-14T01:10:38;3.63;;;0.57;;
14282;SDS011;7225;59.282;18.344;2023-03-14T01:13:06;2.17;;;0.63;;
14282;SDS011;7225;59.282;18.344;2023-03-14T01:15:34;2.30;;;0.70;;
14282;SDS011;7225;59.282;18.344;2023-03-14T01:18:03;3.23;;;0.80;;
14282;SDS011;7225;59.282;18.344;2023-03-14T01:20:30;1.27;;;0.40;;
14282;SDS011;7225;59.282;18.344;2023-03-14T01:22:57;1.77;;;0.47;;
14282;SDS011;7225;59.282;18.344;2023-03-14T01:25:24;1.87;;;0.63;;
14282;SDS011;7225;59.282;18.344;2023-03-14T01:27:51;2.00;;;0.80;;
14282;SDS011;7225;59.282;18.344;2023-03-14T01:30:18;1.97;;;0.47;;
14282;SDS011;7225;59.282;18.344;2023-03-14T01:32:45;2.60;;;0.40;;
14282;SDS011;7225;59.282;18.344;2023-03-14T01:35:12;1.20;;;0.60;;
14282;SDS011;7225;59.282;18.344;2023-03-14T01:37:39;1.63;;;0.40;;
14282;SDS011;7225;59.282;18.344;2023-03-14T01:40:06;0.40;;;0.30;;
14282;SDS011;7225;59.282;18.344;2023-03-14T01:42:36;1.33;;;0.30;;
14282;SDS011;7225;59.282;18.344;2023-03-14T01:45:03;2.53;;;0.43;;
14282;SDS011;7225;59.282;18.344;2023-03-14T01:47:30;1.43;;;0.47;;
14282;SDS011;7225;59.282;18.344;2023-03-14T01:52:29;3.23;;;0.67;;
14282;SDS011;7225;59.282;18.344;2023-03-14T01:55:15;2.93;;;0.67;;
14282;SDS011;7225;59.282;18.344;2023-03-14T01:57:46;2.17;;;0.53;;
14282;SDS011;7225;59.282;18.344;2023-03-14T02:00:21;1.67;;;0.60;;
14282;SDS011;7225;59.282;18.344;2023-03-14T02:02:49;1.67;;;0.60;;
14282;SDS011;7225;59.282;18.344;2023-03-14T02:05:21;0.57;;;0.30;;
14282;SDS011;7225;59.282;18.344;2023-03-14T02:07:53;1.63;;;0.53;;
14282;SDS011;7225;59.282;18.344;2023-03-14T02:10:25;2.70;;;0.67;;
14282;SDS011;7225;59.282;18.344;2023-03-14T02:12:55;1.20;;;0.73;;
14282;SDS011;7225;59.282;18.344;2023-03-14T02:15:25;3.30;;;0.60;;
14282;SDS011;7225;59.282;18.344;2023-03-14T02:17:52;2.97;;;0.83;;
14282;SDS011;7225;59.282;18.344;2023-03-14T02:23:13;1.90;;;0.57;;
14282;SDS011;7225;59.282;18.344;2023-03-14T02:25:48;3.00;;;0.57;;
14282;SDS011;7225;59.282;18.344;2023-03-14T02:28:42;2.67;;;0.73;;
14282;SDS011;7225;59.282;18.344;2023-03-14T02:31:09;1.70;;;0.40;;
14282;SDS011;7225;59.282;18.344;2023-03-14T02:33:36;3.07;;;0.70;;
14282;SDS011;7225;59.282;18.344;2023-03-14T02:36:05;3.60;;;0.80;;
14282;SDS011;7225;59.282;18.344;2023-03-14T02:38:36;3.17;;;0.87;;
14282;SDS011;7225;59.282;18.344;2023-03-14T02:41:13;5.13;;;0.83;;
14282;SDS011;7225;59.282;18.344;2023-03-14T02:43:40;3.97;;;0.77;;
14282;SDS011;7225;59.282;18.344;2023-03-14T02:46:08;2.80;;;0.83;;
14282;SDS011;7225;59.282;18.344;2023-03-14T02:51:27;2.60;;;0.70;;
14282;SDS011;7225;59.282;18.344;2023-03-14T02:53:55;2.77;;;0.60;;
14282;SDS011;7225;59.282;18.344;2023-03-14T02:56:22;4.23;;;0.80;;
14282;SDS011;7225;59.282;18.344;2023-03-14T02:58:49;2.10;;;0.73;;
14282;SDS011;7225;59.282;18.344;2023-03-14T03:01:16;2.37;;;0.87;;
14282;SDS011;7225;59.282;18.344;2023-03-14T03:03:43;3.23;;;0.77;;
14282;SDS011;7225;59.282;18.344;2023-03-14T03:06:10;3.47;;;0.77;;
14282;SDS011;7225;59.282;18.344;2023-03-14T03:08:37;3.80;;;1.20;;
14282;SDS011;7225;59.282;18.344;2023-03-14T03:11:04;5.47;;;0.80;;
14282;SDS011;7225;59.282;18.344;2023-03-14T03:13:31;3.97;;;1.07;;
14282;SDS011;7225;59.282;18.344;2023-03-14T03:15:58;2.97;;;0.87;;
14282;SDS011;7225;59.282;18.344;2023-03-14T03:18:25;3.97;;;0.97;;
14282;SDS011;7225;59.282;18.344;2023-03-14T03:20:52;4.17;;;1.00;;
14282;SDS011;7225;59.282;18.344;2023-03-14T03:23:19;4.90;;;0.90;;
14282;SDS011;7225;59.282;18.344;2023-03-14T03:25:49;4.07;;;1.00;;
14282;SDS011;7225;59.282;18.344;2023-03-14T03:28:17;2.63;;;0.67;;
14282;SDS011;7225;59.282;18.344;2023-03-14T03:30:45;3.83;;;1.17;;
14282;SDS011;7225;59.282;18.344;2023-03-14T03:33:13;2.60;;;0.80;;
14282;SDS011;7225;59.282;18.344;2023-03-14T03:35:44;2.77;;;0.77;;
14282;SDS011;7225;59.282;18.344;2023-03-14T03:38:13;4.67;;;1.20;;
14282;SDS011;7225;59.282;18.344;2023-03-14T03:40:40;2.60;;;0.97;;
14282;SDS011;7225;59.282;18.344;2023-03-14T03:43:07;3.63;;;1.10;;
14282;SDS011;7225;59.282;18.344;2023-03-14T03:45:34;3.50;;;0.80;;
14282;SDS011;7225;59.282;18.344;2023-03-14T03:48:01;5.20;;;1.10;;
14282;SDS011;7225;59.282;18.344;2023-03-14T03:50:28;1.20;;;0.60;;
14282;SDS011;7225;59.282;18.344;2023-03-14T03:52:55;5.70;;;0.97;;
14282;SDS011;7225;59.282;18.344;2023-03-14T03:55:22;4.13;;;1.17;;
14282;SDS011;7225;59.282;18.344;2023-03-14T03:57:49;2.00;;;0.73;;
14282;SDS011;7225;59.282;18.344;2023-03-14T04:00:16;3.00;;;0.80;;
14282;SDS011;7225;59.282;18.344;2023-03-14T04:02:52;4.13;;;1.00;;
14282;SDS011;7225;59.282;18.344;2023-03-14T04:05:19;2.37;;;0.90;;
14282;SDS011;7225;59.282;18.344;2023-03-14T04:07:46;5.03;;;0.93;;
14282;SDS011;7225;59.282;18.344;2023-03-14T04:10:13;4.30;;;1.23;;
14282;SDS011;7225;59.282;18.344;2023-03-14T04:12:40;4.27;;;0.80;;
14282;SDS011;7225;59.282;18.344;2023-03-14T04:15:07;2.60;;;0.90;;
14282;SDS011;7225;59.282;18.344;2023-03-14T04:17:35;5.10;;;0.80;;
14282;SDS011;7225;59.282;18.344;2023-03-14T04:20:02;2.77;;;0.80;;
14282;SDS011;7225;59.282;18.344;2023-03-14T04:22:29;4.33;;;1.00;;
14282;SDS011;7225;59.282;18.344;2023-03-14T04:24:56;3.80;;;0.73;;
14282;SDS011;7225;59.282;18.344;2023-03-14T04:27:23;6.07;;;1.10;;
14282;SDS011;7225;59.282;18.344;2023-03-14T04:29:50;2.93;;;0.70;;
14282;SDS011;7225;59.282;18.344;2023-03-14T04:32:17;4.53;;;0.93;;
14282;SDS011;7225;59.282;18.344;2023-03-14T04:34:44;1.73;;;0.60;;
14282;SDS011;7225;59.282;18.344;2023-03-14T04:37:11;3.03;;;0.70;;
14282;SDS011;7225;59.282;18.344;2023-03-14T04:39:38;0.93;;;0.60;;
14282;SDS011;7225;59.282;18.344;2023-03-14T04:42:05;2.40;;;0.87;;
14282;SDS011;7225;59.282;18.344;2023-03-14T04:44:32;4.90;;;1.30;;
14282;SDS011;7225;59.282;18.344;2023-03-14T04:46:59;2.80;;;0.80;;
14282;SDS011;7225;59.282;18.344;2023-03-14T04:49:26;1.73;;;0.70;;
14282;SDS011;7225;59.282;18.344;2023-03-14T04:51:53;1.93;;;0.60;;
14282;SDS011;7225;59.282;18.344;2023-03-14T04:54:20;1.10;;;0.60;;
14282;SDS011;7225;59.282;18.344;2023-03-14T04:56:47;2.60;;;0.40;;
14282;SDS011;7225;59.282;18.344;2023-03-14T04:59:14;1.90;;;0.50;;
14282;SDS011;7225;59.282;18.344;2023-03-14T05:01:41;1.33;;;0.40;;
14282;SDS011;7225;59.282;18.344;2023-03-14T05:04:08;1.17;;;0.50;;
14282;SDS011;7225;59.282;18.344;2023-03-14T05:06:35;1.20;;;0.50;;
14282;SDS011;7225;59.282;18.344;2023-03-14T05:09:02;1.40;;;0.50;;
14282;SDS011;7225;59.282;18.344;2023-03-14T05:11:31;1.93;;;0.50;;
14282;SDS011;7225;59.282;18.344;2023-03-14T05:13:59;2.93;;;0.80;;
14282;SDS011;7225;59.282;18.344;2023-03-14T05:16:26;1.63;;;0.47;;
14282;SDS011;7225;59.282;18.344;2023-03-14T05:18:53;1.50;;;0.47;;
14282;SDS011;7225;59.282;18.344;2023-03-14T05:21:20;1.53;;;0.40;;
14282;SDS011;7225;59.282;18.344;2023-03-14T05:23:46;1.50;;;0.73;;
14282;SDS011;7225;59.282;18.344;2023-03-14T05:26:13;1.30;;;0.47;;
14282;SDS011;7225;59.282;18.344;2023-03-14T05:28:42;0.83;;;0.33;;
14282;SDS011;7225;59.282;18.344;2023-03-14T05:31:10;1.83;;;0.47;;
14282;SDS011;7225;59.282;18.344;2023-03-14T05:33:37;1.20;;;0.40;;
14282;SDS011;7225;59.282;18.344;2023-03-14T05:36:04;3.30;;;0.97;;
14282;SDS011;7225;59.282;18.344;2023-03-14T05:38:31;2.83;;;0.60;;
14282;SDS011;7225;59.282;18.344;2023-03-14T05:40:58;1.00;;;0.90;;
14282;SDS011;7225;59.282;18.344;2023-03-14T05:43:25;1.43;;;0.50;;
14282;SDS011;7225;59.282;18.344;2023-03-14T05:45:52;2.97;;;0.40;;
14282;SDS011;7225;59.282;18.344;2023-03-14T05:48:19;1.83;;;0.67;;
14282;SDS011;7225;59.282;18.344;2023-03-14T05:50:47;1.93;;;0.60;;
14282;SDS011;7225;59.282;18.344;2023-03-14T05:53:14;2.43;;;0.57;;
14282;SDS011;7225;59.282;18.344;2023-03-14T05:55:41;1.00;;;0.57;;
14282;SDS011;7225;59.282;18.344;2023-03-14T05:58:08;2.57;;;0.60;;
14282;SDS011;7225;59.282;18.344;2023-03-14T06:00:35;1.57;;;0.50;;
14282;SDS011;7225;59.282;18.344;2023-03-14T06:03:02;2.33;;;0.53;;
14282;SDS011;7225;59.282;18.344;2023-03-14T06:05:32;1.23;;;0.40;;
14282;SDS011;7225;59.282;18.344;2023-03-14T06:07:59;0.73;;;0.50;;
14282;SDS011;7225;59.282;18.344;2023-03-14T06:10:26;2.83;;;0.50;;
14282;SDS011;7225;59.282;18.344;2023-03-14T06:12:53;1.37;;;0.40;;
14282;SDS011;7225;59.282;18.344;2023-03-14T06:15:20;2.83;;;0.60;;
14282;SDS011;7225;59.282;18.344;2023-03-14T06:17:47;2.40;;;0.70;;
14282;SDS011;7225;59.282;18.344;2023-03-14T06:20:14;1.27;;;0.70;;
14282;SDS011;7225;59.282;18.344;2023-03-14T06:22:41;2.93;;;0.50;;
14282;SDS011;7225;59.282;18.344;2023-03-14T06:25:08;1.23;;;0.63;;
14282;SDS011;7225;59.282;18.344;2023-03-14T06:27:35;2.93;;;0.63;;
14282;SDS011;7225;59.282;18.344;2023-03-14T06:30:02;2.87;;;0.67;;
14282;SDS011;7225;59.282;18.344;2023-03-14T06:32:29;2.77;;;0.80;;
14282;SDS011;7225;59.282;18.344;2023-03-14T06:34:57;3.70;;;0.83;;
14282;SDS011;7225;59.282;18.344;2023-03-14T06:37:27;0.90;;;0.37;;
14282;SDS011;7225;59.282;18.344;2023-03-14T06:39:55;3.20;;;0.90;;
14282;SDS011;7225;59.282;18.344;2023-03-14T06:42:22;2.10;;;0.60;;
14282;SDS011;7225;59.282;18.344;2023-03-14T06:44:49;1.97;;;0.40;;
14282;SDS011;7225;59.282;18.344;2023-03-14T06:47:16;2.73;;;0.90;;
14282;SDS011;7225;59.282;18.344;2023-03-14T06:49:43;2.83;;;0.47;;
14282;SDS011;7225;59.282;18.344;2023-03-14T06:52:10;2.90;;;0.53;;
14282;SDS011;7225;59.282;18.344;2023-03-14T06:54:37;3.13;;;0.73;;
14282;SDS011;7225;59.282;18.344;2023-03-14T06:57:03;2.90;;;0.40;;
14282;SDS011;7225;59.282;18.344;2023-03-14T06:59:30;1.97;;;0.50;;
14282;SDS011;7225;59.282;18.344;2023-03-14T07:01:57;2.50;;;0.60;;
14282;SDS011;7225;59.282;18.344;2023-03-14T07:04:24;3.50;;;0.60;;
14282;SDS011;7225;59.282;18.344;2023-03-14T07:06:51;1.77;;;0.50;;
14282;SDS011;7225;59.282;18.344;2023-03-14T07:09:18;0.97;;;0.50;;
14282;SDS011;7225;59.282;18.344;2023-03-14T07:11:45;0.63;;;0.43;;
14282;SDS011;7225;59.282;18.344;2023-03-14T07:14:12;1.80;;;0.30;;
14282;SDS011;7225;59.282;18.344;2023-03-14T07:19:59;1.87;;;0.70;;
14282;SDS011;7225;59.282;18.344;2023-03-14T07:22:27;2.33;;;0.37;;
14282;SDS011;7225;59.282;18.344;2023-03-14T07:24:54;0.40;;;0.17;;
14282;SDS011;7225;59.282;18.344;2023-03-14T07:27:22;2.07;;;0.60;;
14282;SDS011;7225;59.282;18.344;2023-03-14T07:29:50;1.43;;;0.40;;
14282;SDS011;7225;59.282;18.344;2023-03-14T07:32:17;2.90;;;0.40;;
14282;SDS011;7225;59.282;18.344;2023-03-14T07:34:45;1.20;;;0.40;;
14282;SDS011;7225;59.282;18.344;2023-03-14T07:37:12;2.27;;;0.40;;
14282;SDS011;7225;59.282;18.344;2023-03-14T07:39:39;0.60;;;0.20;;
14282;SDS011;7225;59.282;18.344;2023-03-14T07:42:07;0.97;;;0.40;;
14282;SDS011;7225;59.282;18.344;2023-03-14T07:44:34;0.60;;;0.30;;
14282;SDS011;7225;59.282;18.344;2023-03-14T07:47:02;0.90;;;0.30;;
14282;SDS011;7225;59.282;18.344;2023-03-14T07:49:29;0.87;;;0.20;;
14282;SDS011;7225;59.282;18.344;2023-03-14T07:51:57;1.30;;;0.47;;
14282;SDS011;7225;59.282;18.344;2023-03-14T07:54:25;0.33;;;0.30;;
14282;SDS011;7225;59.282;18.344;2023-03-14T07:56:53;1.60;;;0.30;;
14282;SDS011;7225;59.282;18.344;2023-03-14T07:59:20;0.53;;;0.37;;
14282;SDS011;7225;59.282;18.344;2023-03-14T08:01:48;1.03;;;0.40;;
14282;SDS011;7225;59.282;18.344;2023-03-14T08:04:15;1.50;;;0.43;;
14282;SDS011;7225;59.282;18.344;2023-03-14T08:06:42;1.23;;;0.30;;
14282;SDS011;7225;59.282;18.344;2023-03-14T08:09:10;0.70;;;0.33;;
14282;SDS011;7225;59.282;18.344;2023-03-14T08:11:37;0.27;;;0.23;;
14282;SDS011;7225;59.282;18.344;2023-03-14T08:14:05;1.30;;;0.37;;
14282;SDS011;7225;59.282;18.344;2023-03-14T08:16:32;3.83;;;0.30;;
14282;SDS011;7225;59.282;18.344;2023-03-14T08:19:00;3.30;;;0.47;;
14282;SDS011;7225;59.282;18.344;2023-03-14T08:21:27;0.80;;;0.37;;
14282;SDS011;7225;59.282;18.344;2023-03-14T08:23:55;0.73;;;0.27;;
14282;SDS011;7225;59.282;18.344;2023-03-14T08:26:22;1.67;;;0.37;;
14282;SDS011;7225;59.282;18.344;2023-03-14T08:28:49;1.10;;;0.20;;
14282;SDS011;7225;59.282;18.344;2023-03-14T08:31:16;0.93;;;0.40;;
14282;SDS011;7225;59.282;18.344;2023-03-14T08:33:43;1.27;;;0.20;;
14282;SDS011;7225;59.282;18.344;2023-03-14T08:36:10;1.27;;;0.20;;
14282;SDS011;7225;59.282;18.344;2023-03-14T08:38:37;1.03;;;0.10;;
14282;SDS011;7225;59.282;18.344;2023-03-14T08:41:04;0.33;;;0.20;;
14282;SDS011;7225;59.282;18.344;2023-03-14T08:43:32;1.03;;;0.33;;
14282;SDS011;7225;59.282;18.344;2023-03-14T08:45:59;0.63;;;0.30;;
14282;SDS011;7225;59.282;18.344;2023-03-14T08:48:27;1.63;;;0.20;;
14282;SDS011;7225;59.282;18.344;2023-03-14T08:50:56;0.40;;;0.20;;
14282;SDS011;7225;59.282;18.344;2023-03-14T08:53:29;0.60;;;0.30;;
14282;SDS011;7225;59.282;18.344;2023-03-14T08:55:56;0.60;;;0.30;;
14282;SDS011;7225;59.282;18.344;2023-03-14T08:58:23;0.10;;;0.10;;
14282;SDS011;7225;59.282;18.344;2023-03-14T09:00:50;1.07;;;0.30;;
14282;SDS011;7225;59.282;18.344;2023-03-14T09:03:17;0.20;;;0.20;;
14282;SDS011;7225;59.282;18.344;2023-03-14T09:05:45;0.67;;;0.37;;
14282;SDS011;7225;59.282;18.344;2023-03-14T09:08:12;0.60;;;0.20;;
14282;SDS011;7225;59.282;18.344;2023-03-14T09:10:39;0.83;;;0.20;;
14282;SDS011;7225;59.282;18.344;2023-03-14T09:13:06;1.20;;;0.10;;
14282;SDS011;7225;59.282;18.344;2023-03-14T09:15:33;1.10;;;0.40;;
14282;SDS011;7225;59.282;18.344;2023-03-14T09:18:00;0.57;;;0.20;;
14282;SDS011;7225;59.282;18.344;2023-03-14T09:20:27;1.30;;;0.30;;
14282;SDS011;7225;59.282;18.344;2023-03-14T09:22:54;0.37;;;0.20;;
14282;SDS011;7225;59.282;18.344;2023-03-14T09:25:21;0.87;;;0.27;;
14282;SDS011;7225;59.282;18.344;2023-03-14T09:27:48;0.77;;;0.10;;
14282;SDS011;7225;59.282;18.344;2023-03-14T09:30:15;1.80;;;0.20;;
14282;SDS011;7225;59.282;18.344;2023-03-14T09:32:42;1.37;;;0.20;;
14282;SDS011;7225;59.282;18.344;2023-03-14T09:35:09;1.70;;;0.20;;
14282;SDS011;7225;59.282;18.344;2023-03-14T09:37:36;1.60;;;0.40;;
14282;SDS011;7225;59.282;18.344;2023-03-14T09:40:03;0.20;;;0.20;;
14282;SDS011;7225;59.282;18.344;2023-03-14T09:42:36;1.40;;;0.30;;
14282;SDS011;7225;59.282;18.344;2023-03-14T09:45:27;0.83;;;0.30;;
14282;SDS011;7225;59.282;18.344;2023-03-14T09:47:57;0.07;;;0.07;;
14282;SDS011;7225;59.282;18.344;2023-03-14T09:50:26;2.00;;;0.43;;
14282;SDS011;7225;59.282;18.344;2023-03-14T09:52:59;1.27;;;0.30;;
14282;SDS011;7225;59.282;18.344;2023-03-14T09:55:33;2.47;;;0.20;;
14282;SDS011;7225;59.282;18.344;2023-03-14T09:58:03;0.30;;;0.10;;
14282;SDS011;7225;59.282;18.344;2023-03-14T10:00:36;0.50;;;0.30;;
14282;SDS011;7225;59.282;18.344;2023-03-14T10:05:40;0.20;;;0.10;;
14282;SDS011;7225;59.282;18.344;2023-03-14T10:08:11;0.17;;;0.10;;
14282;SDS011;7225;59.282;18.344;2023-03-14T10:10:39;0.17;;;0.17;;
14282;SDS011;7225;59.282;18.344;2023-03-14T10:15:47;0.13;;;0.10;;
14282;SDS011;7225;59.282;18.344;2023-03-14T10:18:17;0.07;;;0.07;;
14282;SDS011;7225;59.282;18.344;2023-03-14T10:20:45;0.20;;;0.10;;
14282;SDS011;7225;59.282;18.344;2023-03-14T10:25:52;0.60;;;0.17;;
14282;SDS011;7225;59.282;18.344;2023-03-14T10:28:45;0.50;;;0.00;;
14282;SDS011;7225;59.282;18.344;2023-03-14T10:31:15;0.10;;;0.10;;
14282;SDS011;7225;59.282;18.344;2023-03-14T10:33:42;0.30;;;0.20;;
14282;SDS011;7225;59.282;18.344;2023-03-14T10:36:28;0.10;;;0.10;;
14282;SDS011;7225;59.282;18.344;2023-03-14T10:41:47;0.40;;;0.10;;
14282;SDS011;7225;59.282;18.344;2023-03-14T10:44:17;0.33;;;0.10;;
14282;SDS011;7225;59.282;18.344;2023-03-14T10:47:01;0.20;;;0.10;;
14282;SDS011;7225;59.282;18.344;2023-03-14T10:49:31;0.10;;;0.10;;
14282;SDS011;7225;59.282;18.344;2023-03-14T10:52:01;0.60;;;0.07;;
14282;SDS011;7225;59.282;18.344;2023-03-14T10:54:34;0.20;;;0.10;;
14282;SDS011;7225;59.282;18.344;2023-03-14T10:57:01;0.40;;;0.10;;
14282;SDS011;7225;59.282;18.344;2023-03-14T10:59:35;0.20;;;0.07;;
14282;SDS011;7225;59.282;18.344;2023-03-14T11:05:31;0.20;;;0.10;;
14282;SDS011;7225;59.282;18.344;2023-03-14T11:08:09;0.20;;;0.10;;
14282;SDS011;7225;59.282;18.344;2023-03-14T11:10:43;0.20;;;0.17;;
14282;SDS011;7225;59.282;18.344;2023-03-14T11:13:32;0.20;;;0.10;;
14282;SDS011;7225;59.282;18.344;2023-03-14T11:21:41;0.83;;;0.20;;
14282;SDS011;7225;59.282;18.344;2023-03-14T11:30:42;0.20;;;0.10;;
14282;SDS011;7225;59.282;18.344;2023-03-14T11:35:20;0.10;;;0.10;;
14282;SDS011;7225;59.282;18.344;2023-03-14T11:37:52;0.20;;;0.10;;
14282;SDS011;7225;59.282;18.344;2023-03-14T11:40:29;0.10;;;0.10;;
14282;SDS011;7225;59.282;18.344;2023-03-14T11:43:09;0.20;;;0.20;;
14282;SDS011;7225;59.282;18.344;2023-03-14T11:45:37;0.20;;;0.10;;
14282;SDS011;7225;59.282;18.344;2023-03-14T11:50:44;0.63;;;0.20;;
14282;SDS011;7225;59.282;18.344;2023-03-14T11:53:17;0.23;;;0.20;;
14282;SDS011;7225;59.282;18.344;2023-03-14T11:55:48;4.93;;;0.43;;
14282;SDS011;7225;59.282;18.344;2023-03-14T11:58:19;0.80;;;0.40;;
14282;SDS011;7225;59.282;18.344;2023-03-14T12:00:52;3.87;;;1.77;;
14282;SDS011;7225;59.282;18.344;2023-03-14T12:03:23;1.17;;;0.60;;
14282;SDS011;7225;59.282;18.344;2023-03-14T12:09:00;0.60;;;0.53;;
14282;SDS011;7225;59.282;18.344;2023-03-14T12:11:33;0.90;;;0.60;;
14282;SDS011;7225;59.282;18.344;2023-03-14T12:14:16;1.07;;;0.57;;
14282;SDS011;7225;59.282;18.344;2023-03-14T12:16:52;0.73;;;0.53;;
14282;SDS011;7225;59.282;18.344;2023-03-14T12:19:33;1.50;;;0.50;;
14282;SDS011;7225;59.282;18.344;2023-03-14T12:24:53;0.60;;;0.30;;
14282;SDS011;7225;59.282;18.344;2023-03-14T12:27:41;1.80;;;0.27;;
14282;SDS011;7225;59.282;18.344;2023-03-14T12:30:53;1.43;;;0.10;;
14282;SDS011;7225;59.282;18.344;2023-03-14T12:35:36;0.63;;;0.23;;
14282;SDS011;7225;59.282;18.344;2023-03-14T12:38:15;0.47;;;0.20;;
14282;SDS011;7225;59.282;18.344;2023-03-14T12:43:51;0.83;;;0.20;;
14282;SDS011;7225;59.282;18.344;2023-03-14T12:46:22;0.20;;;0.20;;
14282;SDS011;7225;59.282;18.344;2023-03-14T12:51:36;0.53;;;0.30;;
14282;SDS011;7225;59.282;18.344;2023-03-14T13:00:00;0.20;;;0.20;;
14282;SDS011;7225;59.282;18.344;2023-03-14T13:02:42;0.20;;;0.10;;
14282;SDS011;7225;59.282;18.344;2023-03-14T13:05:12;0.30;;;0.10;;
14282;SDS011;7225;59.282;18.344;2023-03-14T13:10:30;1.30;;;0.10;;
14282;SDS011;7225;59.282;18.344;2023-03-14T13:13:21;0.30;;;0.10;;
14282;SDS011;7225;59.282;18.344;2023-03-14T13:15:56;0.20;;;0.13;;
14282;SDS011;7225;59.282;18.344;2023-03-14T13:18:32;0.20;;;0.20;;
14282;SDS011;7225;59.282;18.344;2023-03-14T13:23:55;0.30;;;0.30;;
14282;SDS011;7225;59.282;18.344;2023-03-14T13:26:26;0.13;;;0.13;;
14282;SDS011;7225;59.282;18.344;2023-03-14T13:29:30;0.83;;;0.20;;
14282;SDS011;7225;59.282;18.344;2023-03-14T13:32:01;0.57;;;0.20;;
14282;SDS011;7225;59.282;18.344;2023-03-14T13:34:39;0.70;;;0.20;;
14282;SDS011;7225;59.282;18.344;2023-03-14T13:37:17;0.90;;;0.30;;
14282;SDS011;7225;59.282;18.344;2023-03-14T13:39:50;1.00;;;0.20;;
14282;SDS011;7225;59.282;18.344;2023-03-14T13:42:25;0.60;;;0.30;;
14282;SDS011;7225;59.282;18.344;2023-03-14T13:44:54;0.20;;;0.17;;
14282;SDS011;7225;59.282;18.344;2023-03-14T13:47:23;0.30;;;0.20;;
14282;SDS011;7225;59.282;18.344;2023-03-14T13:49:52;1.87;;;0.40;;
14282;SDS011;7225;59.282;18.344;2023-03-14T13:54:57;2.03;;;0.40;;
14282;SDS011;7225;59.282;18.344;2023-03-14T13:57:27;1.90;;;0.40;;
14282;SDS011;7225;59.282;18.344;2023-03-14T14:00:01;0.57;;;0.33;;
14282;SDS011;7225;59.282;18.344;2023-03-14T14:02:36;0.20;;;0.20;;
14282;SDS011;7225;59.282;18.344;2023-03-14T14:05:05;1.30;;;0.30;;
14282;SDS011;7225;59.282;18.344;2023-03-14T14:07:33;0.37;;;0.30;;
14282;SDS011;7225;59.282;18.344;2023-03-14T14:10:00;0.70;;;0.20;;
14282;SDS011;7225;59.282;18.344;2023-03-14T14:12:35;0.73;;;0.10;;
14282;SDS011;7225;59.282;18.344;2023-03-14T14:15:07;0.20;;;0.20;;
14282;SDS011;7225;59.282;18.344;2023-03-14T14:17:44;0.40;;;0.20;;
14282;SDS011;7225;59.282;18.344;2023-03-14T14:20:22;0.20;;;0.13;;
14282;SDS011;7225;59.282;18.344;2023-03-14T14:23:02;0.10;;;0.10;;
14282;SDS011;7225;59.282;18.344;2023-03-14T14:25:30;0.77;;;0.20;;
14282;SDS011;7225;59.282;18.344;2023-03-14T14:27:58;0.97;;;0.40;;
14282;SDS011;7225;59.282;18.344;2023-03-14T14:33:11;0.77;;;0.30;;
14282;SDS011;7225;59.282;18.344;2023-03-14T14:38:49;0.10;;;0.10;;
14282;SDS011;7225;59.282;18.344;2023-03-14T14:41:20;0.20;;;0.10;;
14282;SDS011;7225;59.282;18.344;2023-03-14T14:43:47;0.00;;;0.00;;
14282;SDS011;7225;59.282;18.344;2023-03-14T14:46:16;0.43;;;0.23;;
14282;SDS011;7225;59.282;18.344;2023-03-14T14:48:45;0.43;;;0.20;;
14282;SDS011;7225;59.282;18.344;2023-03-14T14:51:22;0.60;;;0.50;;
14282;SDS011;7225;59.282;18.344;2023-03-14T14:54:04;1.20;;;0.40;;
14282;SDS011;7225;59.282;18.344;2023-03-14T14:56:49;0.70;;;0.50;;
14282;SDS011;7225;59.282;18.344;2023-03-14T14:59:27;0.83;;;0.60;;
14282;SDS011;7225;59.282;18.344;2023-03-14T15:01:56;3.20;;;0.60;;
14282;SDS011;7225;59.282;18.344;2023-03-14T15:04:25;0.47;;;0.40;;
14282;SDS011;7225;59.282;18.344;2023-03-14T15:06:53;0.73;;;0.60;;
14282;SDS011;7225;59.282;18.344;2023-03-14T15:09:20;0.87;;;0.40;;
14282;SDS011;7225;59.282;18.344;2023-03-14T15:11:47;1.13;;;0.60;;
14282;SDS011;7225;59.282;18.344;2023-03-14T15:14:15;0.87;;;0.80;;
14282;SDS011;7225;59.282;18.344;2023-03-14T15:16:42;0.43;;;0.40;;
14282;SDS011;7225;59.282;18.344;2023-03-14T15:19:14;0.90;;;0.50;;
14282;SDS011;7225;59.282;18.344;2023-03-14T15:21:51;0.77;;;0.60;;
14282;SDS011;7225;59.282;18.344;2023-03-14T15:24:19;0.70;;;0.70;;
14282;SDS011;7225;59.282;18.344;2023-03-14T15:26:46;1.63;;;0.90;;
14282;SDS011;7225;59.282;18.344;2023-03-14T15:29:13;0.50;;;0.50;;
14282;SDS011;7225;59.282;18.344;2023-03-14T15:31:40;3.03;;;0.60;;
14282;SDS011;7225;59.282;18.344;2023-03-14T15:34:10;0.70;;;0.70;;
14282;SDS011;7225;59.282;18.344;2023-03-14T15:36:37;1.47;;;0.50;;
14282;SDS011;7225;59.282;18.344;2023-03-14T15:39:05;2.03;;;0.70;;
14282;SDS011;7225;59.282;18.344;2023-03-14T15:41:33;0.87;;;0.60;;
14282;SDS011;7225;59.282;18.344;2023-03-14T15:44:00;0.90;;;0.67;;
14282;SDS011;7225;59.282;18.344;2023-03-14T15:46:27;0.80;;;0.60;;
14282;SDS011;7225;59.282;18.344;2023-03-14T15:48:56;1.80;;;0.80;;
14282;SDS011;7225;59.282;18.344;2023-03-14T15:51:23;1.63;;;0.70;;
14282;SDS011;7225;59.282;18.344;2023-03-14T15:53:50;0.77;;;0.60;;
14282;SDS011;7225;59.282;18.344;2023-03-14T15:56:19;1.07;;;0.70;;
14282;SDS011;7225;59.282;18.344;2023-03-14T15:58:47;1.27;;;0.60;;
14282;SDS011;7225;59.282;18.344;2023-03-14T16:01:14;1.07;;;0.70;;
14282;SDS011;7225;59.282;18.344;2023-03-14T16:03:43;0.90;;;0.70;;
14282;SDS011;7225;59.282;18.344;2023-03-14T16:06:15;1.00;;;0.67;;
14282;SDS011;7225;59.282;18.344;2023-03-14T16:08:42;0.90;;;0.70;;
14282;SDS011;7225;59.282;18.344;2023-03-14T16:11:10;1.10;;;0.57;;
14282;SDS011;7225;59.282;18.344;2023-03-14T16:13:38;0.83;;;0.67;;
14282;SDS011;7225;59.282;18.344;2023-03-14T16:16:06;1.03;;;0.83;;
14282;SDS011;7225;59.282;18.344;2023-03-14T16:18:35;0.63;;;0.63;;